sensor_id;sensor_type;location;lat;lon;timestamp;P1;durP1;ratioP1;P2;durP2;ratioP2
74632;SDS011;63139;52.018;8.552;2023-11-25T00:00:57;9.88;;;2.13;;
74632;SDS011;63139;52.018;8.552;2023-11-25T00:03:25;9.82;;;2.30;;
74632;SDS011;63139;52.018;8.552;2023-11-25T00:05:53;9.63;;;2.03;;
74632;SDS011;63139;52.018;8.552;2023-11-25T00:08:21;13.50;;;2.80;;
74632;SDS011;63139;52.018;8.552;2023-11-25T00:10:49;10.65;;;1.70;;
74632;SDS011;63139;52.018;8.552;2023-11-25T00:13:17;7.90;;;1.65;;
74632;SDS011;63139;52.018;8.552;2023-11-25T00:15:46;6.53;;;1.52;;
74632;SDS011;63139;52.018;8.552;2023-11-25T00:18:16;5.45;;;1.27;;
74632;SDS011;63139;52.018;8.552;2023-11-25T00:20:45;9.68;;;1.65;;
74632;SDS011;63139;52.018;8.552;2023-11-25T00:23:14;9.88;;;1.73;;
74632;SDS011;63139;52.018;8.552;2023-11-25T00:25:44;6.57;;;1.30;;
74632;SDS011;63139;52.018;8.552;2023-11-25T00:28:11;2.78;;;1.45;;
74632;SDS011;63139;52.018;8.552;2023-11-25T00:30:39;6.55;;;1.70;;
74632;SDS011;63139;52.018;8.552;2023-11-25T00:33:07;7.97;;;2.50;;
74632;SDS011;63139;52.018;8.552;2023-11-25T00:35:36;10.52;;;2.00;;
74632;SDS011;63139;52.018;8.552;2023-11-25T00:38:04;4.30;;;1.60;;
74632;SDS011;63139;52.018;8.552;2023-11-25T00:40:34;11.63;;;2.10;;
74632;SDS011;63139;52.018;8.552;2023-11-25T00:43:03;5.70;;;1.60;;
74632;SDS011;63139;52.018;8.552;2023-11-25T00:45:31;8.75;;;1.70;;
74632;SDS011;63139;52.018;8.552;2023-11-25T00:47:59;9.88;;;2.10;;
74632;SDS011;63139;52.018;8.552;2023-11-25T00:50:27;5.53;;;2.10;;
74632;SDS011;63139;52.018;8.552;2023-11-25T00:52:56;15.52;;;2.63;;
74632;SDS011;63139;52.018;8.552;2023-11-25T00:55:24;7.68;;;1.98;;
74632;SDS011;63139;52.018;8.552;2023-11-25T00:57:53;5.15;;;1.83;;
74632;SDS011;63139;52.018;8.552;2023-11-25T01:00:21;11.30;;;2.33;;
74632;SDS011;63139;52.018;8.552;2023-11-25T01:02:53;7.07;;;2.00;;
74632;SDS011;63139;52.018;8.552;2023-11-25T01:05:22;4.20;;;1.80;;
74632;SDS011;63139;52.018;8.552;2023-11-25T01:07:50;4.43;;;1.90;;
74632;SDS011;63139;52.018;8.552;2023-11-25T01:10:19;6.80;;;1.55;;
74632;SDS011;63139;52.018;8.552;2023-11-25T01:12:47;15.10;;;2.10;;
74632;SDS011;63139;52.018;8.552;2023-11-25T01:15:15;9.70;;;2.05;;
74632;SDS011;63139;52.018;8.552;2023-11-25T01:17:43;7.30;;;2.08;;
74632;SDS011;63139;52.018;8.552;2023-11-25T01:20:11;5.72;;;1.88;;
74632;SDS011;63139;52.018;8.552;2023-11-25T01:22:40;9.68;;;2.20;;
74632;SDS011;63139;52.018;8.552;2023-11-25T01:25:08;6.07;;;1.50;;
74632;SDS011;63139;52.018;8.552;2023-11-25T01:27:37;8.40;;;1.70;;
74632;SDS011;63139;52.018;8.552;2023-11-25T01:30:06;8.27;;;2.13;;
74632;SDS011;63139;52.018;8.552;2023-11-25T01:32:34;5.30;;;1.70;;
74632;SDS011;63139;52.018;8.552;2023-11-25T01:35:02;4.95;;;2.03;;
74632;SDS011;63139;52.018;8.552;2023-11-25T01:37:31;8.40;;;2.50;;
74632;SDS011;63139;52.018;8.552;2023-11-25T01:40:00;7.43;;;2.17;;
74632;SDS011;63139;52.018;8.552;2023-11-25T01:42:31;12.00;;;2.22;;
74632;SDS011;63139;52.018;8.552;2023-11-25T01:45:00;7.05;;;2.58;;
74632;SDS011;63139;52.018;8.552;2023-11-25T01:47:28;7.80;;;2.60;;
74632;SDS011;63139;52.018;8.552;2023-11-25T01:49:57;8.80;;;3.10;;
74632;SDS011;63139;52.018;8.552;2023-11-25T01:52:25;6.65;;;2.75;;
74632;SDS011;63139;52.018;8.552;2023-11-25T01:54:54;6.28;;;2.75;;
74632;SDS011;63139;52.018;8.552;2023-11-25T01:57:22;4.80;;;2.60;;
74632;SDS011;63139;52.018;8.552;2023-11-25T01:59:51;6.93;;;2.92;;
74632;SDS011;63139;52.018;8.552;2023-11-25T02:02:20;5.32;;;2.95;;
74632;SDS011;63139;52.018;8.552;2023-11-25T02:04:52;9.32;;;3.00;;
74632;SDS011;63139;52.018;8.552;2023-11-25T02:07:20;6.80;;;3.00;;
74632;SDS011;63139;52.018;8.552;2023-11-25T02:09:49;8.18;;;3.45;;
74632;SDS011;63139;52.018;8.552;2023-11-25T02:12:17;9.00;;;3.60;;
74632;SDS011;63139;52.018;8.552;2023-11-25T02:14:44;6.88;;;3.05;;
74632;SDS011;63139;52.018;8.552;2023-11-25T02:17:14;8.15;;;3.03;;
74632;SDS011;63139;52.018;8.552;2023-11-25T02:19:43;8.45;;;3.00;;
74632;SDS011;63139;52.018;8.552;2023-11-25T02:22:11;5.72;;;2.03;;
74632;SDS011;63139;52.018;8.552;2023-11-25T02:24:41;5.78;;;2.10;;
74632;SDS011;63139;52.018;8.552;2023-11-25T02:27:10;5.80;;;2.20;;
74632;SDS011;63139;52.018;8.552;2023-11-25T02:29:40;4.90;;;1.80;;
74632;SDS011;63139;52.018;8.552;2023-11-25T02:32:07;4.15;;;1.88;;
74632;SDS011;63139;52.018;8.552;2023-11-25T02:34:36;3.85;;;2.03;;
74632;SDS011;63139;52.018;8.552;2023-11-25T02:37:03;7.03;;;2.70;;
74632;SDS011;63139;52.018;8.552;2023-11-25T02:39:33;4.80;;;2.08;;
74632;SDS011;63139;52.018;8.552;2023-11-25T02:42:05;5.32;;;2.10;;
74632;SDS011;63139;52.018;8.552;2023-11-25T02:44:35;7.88;;;2.22;;
74632;SDS011;63139;52.018;8.552;2023-11-25T02:47:03;3.80;;;1.83;;
74632;SDS011;63139;52.018;8.552;2023-11-25T02:49:32;3.38;;;1.80;;
74632;SDS011;63139;52.018;8.552;2023-11-25T02:52:00;3.55;;;2.00;;
74632;SDS011;63139;52.018;8.552;2023-11-25T02:54:28;5.38;;;2.05;;
74632;SDS011;63139;52.018;8.552;2023-11-25T02:56:56;4.63;;;2.10;;
74632;SDS011;63139;52.018;8.552;2023-11-25T02:59:25;6.82;;;2.45;;
74632;SDS011;63139;52.018;8.552;2023-11-25T03:01:53;6.07;;;2.00;;
74632;SDS011;63139;52.018;8.552;2023-11-25T03:04:21;4.95;;;1.95;;
74632;SDS011;63139;52.018;8.552;2023-11-25T03:06:53;7.55;;;2.00;;
74632;SDS011;63139;52.018;8.552;2023-11-25T03:09:21;10.75;;;2.17;;
74632;SDS011;63139;52.018;8.552;2023-11-25T03:11:52;6.57;;;2.10;;
74632;SDS011;63139;52.018;8.552;2023-11-25T03:14:19;6.65;;;2.72;;
74632;SDS011;63139;52.018;8.552;2023-11-25T03:16:50;6.40;;;2.20;;
74632;SDS011;63139;52.018;8.552;2023-11-25T03:19:19;6.28;;;2.03;;
74632;SDS011;63139;52.018;8.552;2023-11-25T03:21:48;8.73;;;2.15;;
74632;SDS011;63139;52.018;8.552;2023-11-25T03:24:17;5.47;;;1.75;;
74632;SDS011;63139;52.018;8.552;2023-11-25T03:26:47;6.57;;;2.25;;
74632;SDS011;63139;52.018;8.552;2023-11-25T03:29:15;8.57;;;2.10;;
74632;SDS011;63139;52.018;8.552;2023-11-25T03:31:45;6.85;;;2.17;;
74632;SDS011;63139;52.018;8.552;2023-11-25T03:34:14;7.50;;;2.03;;
74632;SDS011;63139;52.018;8.552;2023-11-25T03:36:41;7.30;;;2.05;;
74632;SDS011;63139;52.018;8.552;2023-11-25T03:39:09;7.18;;;1.70;;
74632;SDS011;63139;52.018;8.552;2023-11-25T03:41:40;8.27;;;1.83;;
74632;SDS011;63139;52.018;8.552;2023-11-25T03:44:07;4.78;;;1.85;;
74632;SDS011;63139;52.018;8.552;2023-11-25T03:46:36;5.93;;;1.90;;
74632;SDS011;63139;52.018;8.552;2023-11-25T03:49:07;7.82;;;1.77;;
74632;SDS011;63139;52.018;8.552;2023-11-25T03:51:37;6.18;;;1.92;;
74632;SDS011;63139;52.018;8.552;2023-11-25T03:54:05;4.07;;;1.85;;
74632;SDS011;63139;52.018;8.552;2023-11-25T03:56:33;5.50;;;1.58;;
74632;SDS011;63139;52.018;8.552;2023-11-25T03:59:01;5.25;;;1.75;;
74632;SDS011;63139;52.018;8.552;2023-11-25T04:01:29;5.72;;;1.67;;
74632;SDS011;63139;52.018;8.552;2023-11-25T04:03:57;4.85;;;1.95;;
74632;SDS011;63139;52.018;8.552;2023-11-25T04:06:24;6.50;;;1.70;;
74632;SDS011;63139;52.018;8.552;2023-11-25T04:08:54;3.50;;;1.60;;
74632;SDS011;63139;52.018;8.552;2023-11-25T04:11:21;4.90;;;1.85;;
74632;SDS011;63139;52.018;8.552;2023-11-25T04:13:49;4.90;;;1.70;;
74632;SDS011;63139;52.018;8.552;2023-11-25T04:16:19;6.78;;;1.55;;
74632;SDS011;63139;52.018;8.552;2023-11-25T04:18:48;8.35;;;1.88;;
74632;SDS011;63139;52.018;8.552;2023-11-25T04:21:16;4.22;;;1.45;;
74632;SDS011;63139;52.018;8.552;2023-11-25T04:23:47;7.70;;;1.55;;
74632;SDS011;63139;52.018;8.552;2023-11-25T04:26:16;9.90;;;1.70;;
74632;SDS011;63139;52.018;8.552;2023-11-25T04:28:46;3.60;;;1.30;;
74632;SDS011;63139;52.018;8.552;2023-11-25T04:31:14;2.78;;;1.08;;
74632;SDS011;63139;52.018;8.552;2023-11-25T04:33:42;8.25;;;1.63;;
74632;SDS011;63139;52.018;8.552;2023-11-25T04:36:09;4.97;;;1.40;;
74632;SDS011;63139;52.018;8.552;2023-11-25T04:38:39;4.30;;;1.50;;
74632;SDS011;63139;52.018;8.552;2023-11-25T04:41:07;8.70;;;1.90;;
74632;SDS011;63139;52.018;8.552;2023-11-25T04:43:36;7.45;;;1.30;;
74632;SDS011;63139;52.018;8.552;2023-11-25T04:46:04;6.10;;;1.35;;
74632;SDS011;63139;52.018;8.552;2023-11-25T04:48:32;5.93;;;1.58;;
74632;SDS011;63139;52.018;8.552;2023-11-25T04:51:00;8.00;;;1.85;;
74632;SDS011;63139;52.018;8.552;2023-11-25T04:53:28;4.03;;;1.42;;
74632;SDS011;63139;52.018;8.552;2023-11-25T04:55:56;10.00;;;2.08;;
74632;SDS011;63139;52.018;8.552;2023-11-25T04:58:24;9.48;;;1.88;;
74632;SDS011;63139;52.018;8.552;2023-11-25T05:00:53;9.60;;;2.10;;
74632;SDS011;63139;52.018;8.552;2023-11-25T05:03:22;8.68;;;1.95;;
74632;SDS011;63139;52.018;8.552;2023-11-25T05:05:52;4.85;;;1.45;;
74632;SDS011;63139;52.018;8.552;2023-11-25T05:08:19;3.95;;;1.42;;
74632;SDS011;63139;52.018;8.552;2023-11-25T05:10:47;7.20;;;1.60;;
74632;SDS011;63139;52.018;8.552;2023-11-25T05:13:15;10.07;;;2.03;;
74632;SDS011;63139;52.018;8.552;2023-11-25T05:15:43;6.28;;;1.50;;
74632;SDS011;63139;52.018;8.552;2023-11-25T05:18:13;5.72;;;1.60;;
74632;SDS011;63139;52.018;8.552;2023-11-25T05:20:40;6.88;;;2.10;;
74632;SDS011;63139;52.018;8.552;2023-11-25T05:23:08;6.43;;;1.65;;
74632;SDS011;63139;52.018;8.552;2023-11-25T05:25:36;10.05;;;1.88;;
74632;SDS011;63139;52.018;8.552;2023-11-25T05:28:04;13.18;;;2.15;;
74632;SDS011;63139;52.018;8.552;2023-11-25T05:30:31;5.85;;;1.65;;
74632;SDS011;63139;52.018;8.552;2023-11-25T05:32:59;5.68;;;1.88;;
74632;SDS011;63139;52.018;8.552;2023-11-25T05:35:28;9.93;;;2.00;;
74632;SDS011;63139;52.018;8.552;2023-11-25T05:37:56;5.45;;;1.67;;
74632;SDS011;63139;52.018;8.552;2023-11-25T05:40:24;11.77;;;1.65;;
74632;SDS011;63139;52.018;8.552;2023-11-25T05:42:56;7.63;;;1.60;;
74632;SDS011;63139;52.018;8.552;2023-11-25T05:45:26;6.68;;;1.48;;
74632;SDS011;63139;52.018;8.552;2023-11-25T05:47:57;8.57;;;2.03;;
74632;SDS011;63139;52.018;8.552;2023-11-25T05:50:25;10.25;;;2.03;;
74632;SDS011;63139;52.018;8.552;2023-11-25T05:52:55;9.23;;;1.85;;
74632;SDS011;63139;52.018;8.552;2023-11-25T05:55:23;8.10;;;2.10;;
74632;SDS011;63139;52.018;8.552;2023-11-25T05:57:53;8.02;;;1.73;;
74632;SDS011;63139;52.018;8.552;2023-11-25T06:00:24;4.97;;;1.50;;
74632;SDS011;63139;52.018;8.552;2023-11-25T06:02:51;7.40;;;1.80;;
74632;SDS011;63139;52.018;8.552;2023-11-25T06:05:19;9.10;;;1.88;;
74632;SDS011;63139;52.018;8.552;2023-11-25T06:07:48;10.02;;;1.98;;
74632;SDS011;63139;52.018;8.552;2023-11-25T06:10:18;8.55;;;1.60;;
74632;SDS011;63139;52.018;8.552;2023-11-25T06:12:46;11.70;;;3.15;;
74632;SDS011;63139;52.018;8.552;2023-11-25T06:18:14;7.32;;;1.73;;
74632;SDS011;63139;52.018;8.552;2023-11-25T06:20:46;10.30;;;2.22;;
74632;SDS011;63139;52.018;8.552;2023-11-25T06:23:14;17.63;;;2.50;;
74632;SDS011;63139;52.018;8.552;2023-11-25T06:25:43;12.52;;;2.25;;
74632;SDS011;63139;52.018;8.552;2023-11-25T06:28:12;9.75;;;2.22;;
74632;SDS011;63139;52.018;8.552;2023-11-25T06:30:40;8.18;;;1.60;;
74632;SDS011;63139;52.018;8.552;2023-11-25T06:33:09;9.50;;;1.95;;
74632;SDS011;63139;52.018;8.552;2023-11-25T06:35:37;10.43;;;2.55;;
74632;SDS011;63139;52.018;8.552;2023-11-25T06:38:05;13.35;;;1.95;;
74632;SDS011;63139;52.018;8.552;2023-11-25T06:40:34;11.70;;;2.38;;
74632;SDS011;63139;52.018;8.552;2023-11-25T06:43:05;8.95;;;2.55;;
74632;SDS011;63139;52.018;8.552;2023-11-25T06:45:36;9.50;;;2.15;;
74632;SDS011;63139;52.018;8.552;2023-11-25T06:48:06;13.32;;;2.20;;
74632;SDS011;63139;52.018;8.552;2023-11-25T06:50:35;14.35;;;3.08;;
74632;SDS011;63139;52.018;8.552;2023-11-25T06:53:02;11.05;;;1.92;;
74632;SDS011;63139;52.018;8.552;2023-11-25T06:55:31;9.75;;;2.25;;
74632;SDS011;63139;52.018;8.552;2023-11-25T06:58:01;11.20;;;2.83;;
74632;SDS011;63139;52.018;8.552;2023-11-25T07:00:31;8.65;;;2.00;;
74632;SDS011;63139;52.018;8.552;2023-11-25T07:03:00;12.93;;;2.40;;
74632;SDS011;63139;52.018;8.552;2023-11-25T07:05:27;18.85;;;2.40;;
74632;SDS011;63139;52.018;8.552;2023-11-25T07:07:55;12.02;;;2.22;;
74632;SDS011;63139;52.018;8.552;2023-11-25T07:10:23;15.43;;;2.17;;
74632;SDS011;63139;52.018;8.552;2023-11-25T07:12:51;9.88;;;2.20;;
74632;SDS011;63139;52.018;8.552;2023-11-25T07:15:19;9.50;;;1.83;;
74632;SDS011;63139;52.018;8.552;2023-11-25T07:17:48;13.02;;;2.42;;
74632;SDS011;63139;52.018;8.552;2023-11-25T07:20:16;11.50;;;2.40;;
74632;SDS011;63139;52.018;8.552;2023-11-25T07:22:44;12.93;;;1.88;;
74632;SDS011;63139;52.018;8.552;2023-11-25T07:25:12;10.23;;;2.20;;
74632;SDS011;63139;52.018;8.552;2023-11-25T07:27:41;11.48;;;2.00;;
74632;SDS011;63139;52.018;8.552;2023-11-25T07:30:11;11.50;;;2.00;;
74632;SDS011;63139;52.018;8.552;2023-11-25T07:32:40;11.63;;;2.50;;
74632;SDS011;63139;52.018;8.552;2023-11-25T07:35:11;11.50;;;2.25;;
74632;SDS011;63139;52.018;8.552;2023-11-25T07:37:39;16.15;;;2.33;;
74632;SDS011;63139;52.018;8.552;2023-11-25T07:40:07;15.57;;;2.47;;
74632;SDS011;63139;52.018;8.552;2023-11-25T07:42:41;16.20;;;2.90;;
74632;SDS011;63139;52.018;8.552;2023-11-25T07:45:10;14.90;;;3.13;;
74632;SDS011;63139;52.018;8.552;2023-11-25T07:47:38;11.10;;;2.20;;
74632;SDS011;63139;52.018;8.552;2023-11-25T07:50:08;18.85;;;2.42;;
74632;SDS011;63139;52.018;8.552;2023-11-25T07:52:38;9.77;;;1.77;;
74632;SDS011;63139;52.018;8.552;2023-11-25T07:55:07;7.97;;;2.13;;
74632;SDS011;63139;52.018;8.552;2023-11-25T07:57:35;11.38;;;2.20;;
74632;SDS011;63139;52.018;8.552;2023-11-25T08:00:03;12.10;;;1.90;;
74632;SDS011;63139;52.018;8.552;2023-11-25T08:02:37;10.48;;;1.85;;
74632;SDS011;63139;52.018;8.552;2023-11-25T08:05:05;9.40;;;1.77;;
74632;SDS011;63139;52.018;8.552;2023-11-25T08:07:33;10.43;;;1.98;;
74632;SDS011;63139;52.018;8.552;2023-11-25T08:10:03;12.80;;;2.50;;
74632;SDS011;63139;52.018;8.552;2023-11-25T08:12:34;7.35;;;1.80;;
74632;SDS011;63139;52.018;8.552;2023-11-25T08:15:02;6.97;;;1.50;;
74632;SDS011;63139;52.018;8.552;2023-11-25T08:17:30;8.60;;;1.95;;
74632;SDS011;63139;52.018;8.552;2023-11-25T08:19:58;9.10;;;1.88;;
74632;SDS011;63139;52.018;8.552;2023-11-25T08:22:26;5.38;;;1.48;;
74632;SDS011;63139;52.018;8.552;2023-11-25T08:24:54;9.02;;;1.75;;
74632;SDS011;63139;52.018;8.552;2023-11-25T08:27:25;5.18;;;1.35;;
74632;SDS011;63139;52.018;8.552;2023-11-25T08:29:52;4.32;;;1.40;;
74632;SDS011;63139;52.018;8.552;2023-11-25T08:32:20;11.38;;;3.45;;
74632;SDS011;63139;52.018;8.552;2023-11-25T08:34:49;9.07;;;1.70;;
74632;SDS011;63139;52.018;8.552;2023-11-25T08:37:17;6.05;;;1.50;;
74632;SDS011;63139;52.018;8.552;2023-11-25T08:39:51;7.32;;;2.00;;
74632;SDS011;63139;52.018;8.552;2023-11-25T08:42:19;6.30;;;1.30;;
74632;SDS011;63139;52.018;8.552;2023-11-25T08:44:48;8.50;;;2.13;;
74632;SDS011;63139;52.018;8.552;2023-11-25T08:47:17;8.07;;;2.08;;
74632;SDS011;63139;52.018;8.552;2023-11-25T08:49:45;10.57;;;2.10;;
74632;SDS011;63139;52.018;8.552;2023-11-25T08:52:13;8.70;;;2.10;;
74632;SDS011;63139;52.018;8.552;2023-11-25T08:54:40;6.07;;;1.75;;
74632;SDS011;63139;52.018;8.552;2023-11-25T08:57:08;11.55;;;2.50;;
74632;SDS011;63139;52.018;8.552;2023-11-25T08:59:37;15.85;;;2.38;;
74632;SDS011;63139;52.018;8.552;2023-11-25T09:02:06;11.70;;;1.95;;
74632;SDS011;63139;52.018;8.552;2023-11-25T09:04:39;8.93;;;1.88;;
74632;SDS011;63139;52.018;8.552;2023-11-25T09:07:09;8.40;;;2.08;;
74632;SDS011;63139;52.018;8.552;2023-11-25T09:09:40;11.98;;;2.13;;
74632;SDS011;63139;52.018;8.552;2023-11-25T09:12:11;13.73;;;2.20;;
74632;SDS011;63139;52.018;8.552;2023-11-25T09:14:41;9.27;;;1.98;;
74632;SDS011;63139;52.018;8.552;2023-11-25T09:17:10;4.30;;;1.58;;
74632;SDS011;63139;52.018;8.552;2023-11-25T09:19:42;6.38;;;1.75;;
74632;SDS011;63139;52.018;8.552;2023-11-25T09:22:10;6.47;;;2.00;;
74632;SDS011;63139;52.018;8.552;2023-11-25T09:24:39;6.65;;;1.70;;
74632;SDS011;63139;52.018;8.552;2023-11-25T09:27:07;9.77;;;1.83;;
74632;SDS011;63139;52.018;8.552;2023-11-25T09:29:35;7.35;;;1.60;;
74632;SDS011;63139;52.018;8.552;2023-11-25T09:32:03;8.38;;;1.90;;
74632;SDS011;63139;52.018;8.552;2023-11-25T09:34:33;7.55;;;1.55;;
74632;SDS011;63139;52.018;8.552;2023-11-25T09:37:01;7.97;;;1.80;;
74632;SDS011;63139;52.018;8.552;2023-11-25T09:39:29;8.27;;;1.65;;
74632;SDS011;63139;52.018;8.552;2023-11-25T09:41:58;7.47;;;1.55;;
74632;SDS011;63139;52.018;8.552;2023-11-25T09:44:26;8.57;;;1.70;;
74632;SDS011;63139;52.018;8.552;2023-11-25T09:46:56;4.72;;;1.40;;
74632;SDS011;63139;52.018;8.552;2023-11-25T09:49:24;5.40;;;1.60;;
74632;SDS011;63139;52.018;8.552;2023-11-25T09:51:54;4.50;;;1.20;;
74632;SDS011;63139;52.018;8.552;2023-11-25T09:54:27;3.83;;;1.35;;
74632;SDS011;63139;52.018;8.552;2023-11-25T09:56:56;3.05;;;1.10;;
74632;SDS011;63139;52.018;8.552;2023-11-25T09:59:26;2.28;;;1.02;;
74632;SDS011;63139;52.018;8.552;2023-11-25T10:01:54;6.00;;;1.30;;
74632;SDS011;63139;52.018;8.552;2023-11-25T10:04:24;1.73;;;1.17;;
74632;SDS011;63139;52.018;8.552;2023-11-25T10:06:55;4.70;;;1.10;;
74632;SDS011;63139;52.018;8.552;2023-11-25T10:09:23;3.95;;;1.10;;
74632;SDS011;63139;52.018;8.552;2023-11-25T10:11:51;3.05;;;1.00;;
74632;SDS011;63139;52.018;8.552;2023-11-25T10:14:25;2.63;;;0.90;;
74632;SDS011;63139;52.018;8.552;2023-11-25T10:16:55;4.13;;;1.00;;
74632;SDS011;63139;52.018;8.552;2023-11-25T10:19:24;3.10;;;1.00;;
74632;SDS011;63139;52.018;8.552;2023-11-25T10:21:53;2.33;;;0.70;;
74632;SDS011;63139;52.018;8.552;2023-11-25T10:24:24;1.23;;;0.80;;
74632;SDS011;63139;52.018;8.552;2023-11-25T10:26:54;0.82;;;0.80;;
74632;SDS011;63139;52.018;8.552;2023-11-25T10:29:22;1.70;;;0.70;;
74632;SDS011;63139;52.018;8.552;2023-11-25T10:31:56;2.13;;;0.70;;
74632;SDS011;63139;52.018;8.552;2023-11-25T10:34:25;0.90;;;0.57;;
74632;SDS011;63139;52.018;8.552;2023-11-25T10:36:52;1.85;;;0.63;;
74632;SDS011;63139;52.018;8.552;2023-11-25T10:39:22;0.85;;;0.75;;
74632;SDS011;63139;52.018;8.552;2023-11-25T10:41:52;1.92;;;0.85;;
74632;SDS011;63139;52.018;8.552;2023-11-25T10:44:19;3.65;;;1.00;;
74632;SDS011;63139;52.018;8.552;2023-11-25T10:46:47;2.28;;;0.90;;
74632;SDS011;63139;52.018;8.552;2023-11-25T10:49:15;2.80;;;0.95;;
74632;SDS011;63139;52.018;8.552;2023-11-25T10:51:45;2.83;;;0.90;;
74632;SDS011;63139;52.018;8.552;2023-11-25T10:54:13;3.90;;;1.50;;
74632;SDS011;63139;52.018;8.552;2023-11-25T10:56:45;2.90;;;1.20;;
74632;SDS011;63139;52.018;8.552;2023-11-25T10:59:15;6.20;;;1.30;;
74632;SDS011;63139;52.018;8.552;2023-11-25T11:01:47;3.42;;;1.05;;
74632;SDS011;63139;52.018;8.552;2023-11-25T11:04:17;7.55;;;1.50;;
74632;SDS011;63139;52.018;8.552;2023-11-25T11:06:54;4.40;;;1.38;;
74632;SDS011;63139;52.018;8.552;2023-11-25T11:09:31;2.03;;;1.27;;
74632;SDS011;63139;52.018;8.552;2023-11-25T11:12:04;3.17;;;1.10;;
74632;SDS011;63139;52.018;8.552;2023-11-25T11:14:36;2.67;;;1.00;;
74632;SDS011;63139;52.018;8.552;2023-11-25T11:17:09;4.18;;;1.48;;
74632;SDS011;63139;52.018;8.552;2023-11-25T11:19:41;2.55;;;0.98;;
74632;SDS011;63139;52.018;8.552;2023-11-25T11:22:10;2.65;;;1.00;;
74632;SDS011;63139;52.018;8.552;2023-11-25T11:24:43;8.70;;;1.10;;
74632;SDS011;63139;52.018;8.552;2023-11-25T11:27:26;3.78;;;1.15;;
74632;SDS011;63139;52.018;8.552;2023-11-25T11:30:01;0.80;;;0.80;;
74632;SDS011;63139;52.018;8.552;2023-11-25T11:32:36;3.45;;;1.10;;
74632;SDS011;63139;52.018;8.552;2023-11-25T11:35:08;2.08;;;0.85;;
74632;SDS011;63139;52.018;8.552;2023-11-25T11:37:36;0.93;;;0.80;;
74632;SDS011;63139;52.018;8.552;2023-11-25T11:40:07;1.60;;;0.95;;
74632;SDS011;63139;52.018;8.552;2023-11-25T11:42:36;4.18;;;1.00;;
74632;SDS011;63139;52.018;8.552;2023-11-25T11:45:08;2.15;;;0.93;;
74632;SDS011;63139;52.018;8.552;2023-11-25T11:47:45;2.40;;;0.90;;
74632;SDS011;63139;52.018;8.552;2023-11-25T11:50:17;1.98;;;0.90;;
74632;SDS011;63139;52.018;8.552;2023-11-25T11:52:46;1.95;;;0.98;;
74632;SDS011;63139;52.018;8.552;2023-11-25T11:55:34;2.03;;;1.00;;
74632;SDS011;63139;52.018;8.552;2023-11-25T11:58:07;3.90;;;1.33;;
74632;SDS011;63139;52.018;8.552;2023-11-25T12:00:40;3.50;;;1.10;;
74632;SDS011;63139;52.018;8.552;2023-11-25T12:03:12;3.85;;;1.20;;
74632;SDS011;63139;52.018;8.552;2023-11-25T12:05:41;3.95;;;1.02;;
74632;SDS011;63139;52.018;8.552;2023-11-25T12:08:09;1.90;;;1.00;;
74632;SDS011;63139;52.018;8.552;2023-11-25T12:10:37;2.65;;;1.10;;
74632;SDS011;63139;52.018;8.552;2023-11-25T12:13:06;6.68;;;1.77;;
74632;SDS011;63139;52.018;8.552;2023-11-25T12:15:35;6.32;;;1.42;;
74632;SDS011;63139;52.018;8.552;2023-11-25T12:18:04;3.47;;;1.10;;
74632;SDS011;63139;52.018;8.552;2023-11-25T12:20:33;6.15;;;1.40;;
74632;SDS011;63139;52.018;8.552;2023-11-25T12:23:05;5.30;;;1.60;;
74632;SDS011;63139;52.018;8.552;2023-11-25T12:25:36;4.68;;;1.60;;
74632;SDS011;63139;52.018;8.552;2023-11-25T12:28:04;3.50;;;1.40;;
74632;SDS011;63139;52.018;8.552;2023-11-25T12:30:34;7.63;;;1.77;;
74632;SDS011;63139;52.018;8.552;2023-11-25T12:33:04;3.75;;;1.40;;
74632;SDS011;63139;52.018;8.552;2023-11-25T12:35:33;8.23;;;1.40;;
74632;SDS011;63139;52.018;8.552;2023-11-25T12:38:01;4.45;;;1.70;;
74632;SDS011;63139;52.018;8.552;2023-11-25T12:40:41;3.33;;;1.67;;
74632;SDS011;63139;52.018;8.552;2023-11-25T12:43:11;5.18;;;1.73;;
74632;SDS011;63139;52.018;8.552;2023-11-25T12:45:41;1.70;;;1.40;;
74632;SDS011;63139;52.018;8.552;2023-11-25T12:48:12;6.45;;;2.33;;
74632;SDS011;63139;52.018;8.552;2023-11-25T12:50:58;6.25;;;1.60;;
74632;SDS011;63139;52.018;8.552;2023-11-25T12:53:29;4.43;;;1.80;;
74632;SDS011;63139;52.018;8.552;2023-11-25T12:55:57;4.78;;;1.80;;
74632;SDS011;63139;52.018;8.552;2023-11-25T12:58:26;4.68;;;1.92;;
74632;SDS011;63139;52.018;8.552;2023-11-25T13:00:55;5.35;;;2.10;;
74632;SDS011;63139;52.018;8.552;2023-11-25T13:03:27;7.25;;;2.70;;
74632;SDS011;63139;52.018;8.552;2023-11-25T13:05:57;6.03;;;2.47;;
74632;SDS011;63139;52.018;8.552;2023-11-25T13:08:27;5.65;;;2.33;;
74632;SDS011;63139;52.018;8.552;2023-11-25T13:10:59;7.65;;;2.50;;
74632;SDS011;63139;52.018;8.552;2023-11-25T13:13:30;4.68;;;2.75;;
74632;SDS011;63139;52.018;8.552;2023-11-25T13:15:59;9.00;;;2.72;;
74632;SDS011;63139;52.018;8.552;2023-11-25T13:18:29;6.20;;;2.90;;
74632;SDS011;63139;52.018;8.552;2023-11-25T13:20:58;7.13;;;2.30;;
74632;SDS011;63139;52.018;8.552;2023-11-25T13:23:27;5.03;;;2.22;;
74632;SDS011;63139;52.018;8.552;2023-11-25T13:25:55;6.95;;;2.63;;
74632;SDS011;63139;52.018;8.552;2023-11-25T13:28:23;6.00;;;2.30;;
74632;SDS011;63139;52.018;8.552;2023-11-25T13:30:51;5.68;;;2.17;;
74632;SDS011;63139;52.018;8.552;2023-11-25T13:33:19;6.88;;;2.30;;
74632;SDS011;63139;52.018;8.552;2023-11-25T13:35:50;6.80;;;2.50;;
74632;SDS011;63139;52.018;8.552;2023-11-25T13:38:18;5.68;;;2.25;;
74632;SDS011;63139;52.018;8.552;2023-11-25T13:40:45;4.22;;;1.95;;
74632;SDS011;63139;52.018;8.552;2023-11-25T13:43:14;13.07;;;3.53;;
74632;SDS011;63139;52.018;8.552;2023-11-25T13:45:43;4.22;;;1.73;;
74632;SDS011;63139;52.018;8.552;2023-11-25T13:48:11;6.72;;;1.85;;
74632;SDS011;63139;52.018;8.552;2023-11-25T13:50:42;6.63;;;2.00;;
74632;SDS011;63139;52.018;8.552;2023-11-25T13:53:12;6.90;;;1.90;;
74632;SDS011;63139;52.018;8.552;2023-11-25T13:55:40;5.97;;;2.30;;
74632;SDS011;63139;52.018;8.552;2023-11-25T13:58:11;6.45;;;2.00;;
74632;SDS011;63139;52.018;8.552;2023-11-25T14:00:39;3.30;;;1.38;;
74632;SDS011;63139;52.018;8.552;2023-11-25T14:03:07;6.40;;;1.85;;
74632;SDS011;63139;52.018;8.552;2023-11-25T14:05:37;6.25;;;1.50;;
74632;SDS011;63139;52.018;8.552;2023-11-25T14:08:09;6.07;;;2.30;;
74632;SDS011;63139;52.018;8.552;2023-11-25T14:10:39;4.38;;;1.50;;
74632;SDS011;63139;52.018;8.552;2023-11-25T14:13:10;6.65;;;1.80;;
74632;SDS011;63139;52.018;8.552;2023-11-25T14:15:38;5.65;;;1.50;;
74632;SDS011;63139;52.018;8.552;2023-11-25T14:18:07;7.00;;;1.25;;
74632;SDS011;63139;52.018;8.552;2023-11-25T14:20:37;5.65;;;3.45;;
74632;SDS011;63139;52.018;8.552;2023-11-25T14:23:04;5.97;;;1.40;;
74632;SDS011;63139;52.018;8.552;2023-11-25T14:25:32;3.92;;;1.83;;
74632;SDS011;63139;52.018;8.552;2023-11-25T14:28:02;8.35;;;1.73;;
74632;SDS011;63139;52.018;8.552;2023-11-25T14:30:31;6.15;;;1.52;;
74632;SDS011;63139;52.018;8.552;2023-11-25T14:33:00;3.20;;;1.48;;
74632;SDS011;63139;52.018;8.552;2023-11-25T14:35:30;6.78;;;1.23;;
74632;SDS011;63139;52.018;8.552;2023-11-25T14:37:58;12.15;;;1.50;;
74632;SDS011;63139;52.018;8.552;2023-11-25T14:40:27;2.85;;;1.30;;
74632;SDS011;63139;52.018;8.552;2023-11-25T14:42:55;8.90;;;1.83;;
74632;SDS011;63139;52.018;8.552;2023-11-25T14:45:25;6.72;;;1.42;;
74632;SDS011;63139;52.018;8.552;2023-11-25T14:47:52;5.45;;;1.50;;
74632;SDS011;63139;52.018;8.552;2023-11-25T14:50:20;7.13;;;2.42;;
74632;SDS011;63139;52.018;8.552;2023-11-25T14:52:48;3.95;;;1.65;;
74632;SDS011;63139;52.018;8.552;2023-11-25T14:55:16;5.40;;;1.40;;
74632;SDS011;63139;52.018;8.552;2023-11-25T14:57:44;5.30;;;1.70;;
74632;SDS011;63139;52.018;8.552;2023-11-25T15:00:13;4.32;;;1.40;;